createdAt,value
2023-09-27T00:00:47.253Z,22.35
2023-09-27T00:03:13.860Z,22.35
2023-09-27T00:05:40.590Z,22.32
2023-09-27T00:08:07.725Z,22.39
2023-09-27T00:10:34.354Z,22.44
2023-09-27T00:13:00.916Z,22.36
2023-09-27T00:15:27.584Z,22.31
2023-09-27T00:17:54.827Z,22.33
2023-09-27T00:20:22.286Z,22.25
2023-09-27T00:22:49.088Z,22.26
2023-09-27T00:25:15.938Z,22.31
2023-09-27T00:27:42.597Z,22.19
2023-09-27T00:30:09.910Z,22.05
2023-09-27T00:32:37.068Z,21.96
2023-09-27T00:35:06.753Z,21.99
2023-09-27T00:37:34.690Z,22.12
2023-09-27T00:40:01.271Z,22.17
2023-09-27T00:42:28.200Z,22.26
2023-09-27T00:44:54.897Z,22.31
2023-09-27T00:47:21.617Z,22.27
2023-09-27T00:49:48.427Z,22.29
2023-09-27T00:52:16.820Z,22.29
2023-09-27T00:54:43.385Z,22.25
2023-09-27T00:57:09.982Z,22.27
2023-09-27T00:59:36.764Z,22.22
2023-09-27T01:02:04.170Z,22.20
2023-09-27T01:04:31.517Z,22.29
2023-09-27T01:06:58.118Z,22.41
2023-09-27T01:09:24.853Z,22.38
2023-09-27T01:11:51.554Z,22.36
2023-09-27T01:14:18.302Z,22.39
2023-09-27T01:16:45.002Z,22.37
2023-09-27T01:19:13.116Z,22.41
2023-09-27T01:21:39.668Z,22.33
2023-09-27T01:24:07.077Z,22.24
2023-09-27T01:26:34.545Z,22.22
2023-09-27T01:29:01.135Z,22.27
2023-09-27T01:31:27.865Z,22.28
2023-09-27T01:33:54.502Z,22.45
2023-09-27T01:36:22.673Z,22.34
2023-09-27T01:38:49.315Z,22.09
2023-09-27T01:41:17.468Z,22.30
2023-09-27T01:43:44.345Z,22.20
2023-09-27T01:46:10.929Z,22.12
2023-09-27T01:48:37.822Z,22.12
2023-09-27T01:51:04.458Z,22.19
2023-09-27T01:53:31.136Z,22.28
2023-09-27T01:55:57.911Z,22.29
2023-09-27T01:58:24.535Z,22.33
2023-09-27T02:00:51.338Z,22.24
2023-09-27T02:03:18.009Z,22.20
2023-09-27T02:05:44.989Z,22.26
2023-09-27T02:08:12.251Z,22.39
2023-09-27T02:10:39.157Z,22.41
2023-09-27T02:13:05.875Z,22.46
2023-09-27T02:15:32.408Z,22.50
2023-09-27T02:17:59.134Z,22.54
2023-09-27T02:20:26.029Z,22.49
2023-09-27T02:22:54.503Z,22.32
2023-09-27T02:25:20.989Z,22.30
2023-09-27T02:27:47.845Z,22.29
2023-09-27T02:30:15.087Z,22.09
2023-09-27T02:32:43.070Z,21.94
2023-09-27T02:35:10.008Z,22.03
2023-09-27T02:37:37.434Z,22.10
2023-09-27T02:40:14.490Z,22.18
2023-09-27T02:42:45.191Z,22.32
2023-09-27T02:45:12.164Z,22.37
2023-09-27T02:47:39.491Z,22.33
2023-09-27T02:50:10.407Z,22.38
2023-09-27T02:52:38.795Z,22.37
2023-09-27T02:55:09.476Z,22.28
2023-09-27T02:57:37.963Z,22.07
2023-09-27T03:00:06.727Z,22.01
2023-09-27T03:02:34.039Z,21.92
2023-09-27T03:05:00.984Z,22.03
2023-09-27T03:07:27.795Z,22.09
2023-09-27T03:09:54.480Z,22.10
2023-09-27T03:12:21.053Z,22.20
2023-09-27T03:14:47.752Z,22.35
2023-09-27T03:17:14.480Z,22.45
2023-09-27T03:19:41.152Z,22.38
2023-09-27T03:22:07.921Z,22.35
2023-09-27T03:24:34.756Z,22.30
2023-09-27T03:27:03.476Z,22.29
2023-09-27T03:29:31.747Z,22.22
2023-09-27T03:31:59.687Z,22.18
2023-09-27T03:34:26.284Z,22.15
2023-09-27T03:36:56.577Z,21.99
2023-09-27T03:39:23.141Z,22.00
2023-09-27T03:41:52.925Z,21.95
2023-09-27T03:44:19.541Z,21.96
2023-09-27T03:46:47.375Z,21.77
2023-09-27T03:49:14.261Z,21.60
2023-09-27T03:51:40.991Z,21.34
2023-09-27T03:54:07.729Z,21.21
2023-09-27T03:56:34.381Z,21.27
2023-09-27T03:59:01.062Z,21.12
2023-09-27T04:01:27.859Z,21.17
2023-09-27T04:03:54.530Z,21.21
2023-09-27T04:06:21.349Z,21.21
2023-09-27T04:08:48.107Z,21.22
2023-09-27T04:11:17.242Z,21.10
2023-09-27T04:13:43.904Z,20.99
2023-09-27T04:16:10.506Z,21.04
2023-09-27T04:18:37.165Z,20.97
2023-09-27T04:21:09.840Z,20.99
2023-09-27T04:23:36.741Z,20.93
2023-09-27T04:26:06.422Z,21.00
2023-09-27T04:28:33.600Z,21.15
2023-09-27T04:31:01.002Z,21.24
2023-09-27T04:33:27.688Z,21.17
2023-09-27T04:35:54.245Z,21.17
2023-09-27T04:38:21.753Z,21.26
2023-09-27T04:40:48.482Z,21.24
2023-09-27T04:43:15.035Z,21.29
2023-09-27T04:45:42.269Z,21.52
2023-09-27T04:48:08.992Z,21.67
2023-09-27T04:50:35.695Z,21.60
2023-09-27T04:53:02.567Z,21.44
2023-09-27T04:55:29.512Z,21.53
2023-09-27T04:57:56.231Z,21.52
2023-09-27T05:00:23.538Z,21.40
2023-09-27T05:02:52.197Z,21.31
2023-09-27T05:05:19.009Z,21.28
2023-09-27T05:07:46.037Z,21.19
2023-09-27T05:10:13.044Z,21.10
2023-09-27T05:12:40.150Z,21.15
2023-09-27T05:15:09.907Z,21.18
2023-09-27T05:17:36.562Z,21.24
2023-09-27T05:20:11.187Z,21.31
2023-09-27T05:22:38.132Z,21.51
2023-09-27T05:25:06.294Z,21.62
2023-09-27T05:27:34.637Z,21.87
2023-09-27T05:30:01.568Z,21.93
2023-09-27T05:32:28.372Z,21.79
2023-09-27T05:34:55.429Z,21.72
2023-09-27T05:37:22.078Z,21.77
2023-09-27T05:39:48.717Z,21.81
2023-09-27T05:42:15.504Z,21.82
2023-09-27T05:44:42.101Z,21.91
2023-09-27T05:47:08.843Z,22.00
2023-09-27T05:49:35.643Z,22.17
2023-09-27T05:52:03.364Z,22.08
2023-09-27T05:54:30.523Z,22.35
2023-09-27T05:56:57.302Z,22.39
2023-09-27T05:59:26.610Z,22.47
2023-09-27T06:01:55.280Z,22.41
2023-09-27T06:04:22.653Z,22.32
2023-09-27T06:06:50.061Z,22.71
2023-09-27T06:09:17.059Z,22.71
2023-09-27T06:11:44.387Z,22.80
2023-09-27T06:14:11.259Z,22.65
2023-09-27T06:16:39.204Z,22.63
2023-09-27T06:19:06.150Z,22.65
2023-09-27T06:21:33.474Z,22.59
2023-09-27T06:24:00.351Z,22.58
2023-09-27T06:26:26.974Z,22.56
2023-09-27T06:28:54.301Z,22.59
2023-09-27T06:31:22.424Z,22.52
2023-09-27T06:33:50.267Z,22.45
2023-09-27T06:36:16.941Z,22.63
2023-09-27T06:38:44.905Z,22.78
2023-09-27T06:41:12.087Z,22.76
2023-09-27T06:43:39.370Z,22.55
2023-09-27T06:46:10.835Z,22.46
2023-09-27T06:48:38.357Z,22.49
2023-09-27T06:51:06.169Z,22.54
2023-09-27T06:53:33.908Z,22.46
2023-09-27T06:56:00.798Z,22.76
2023-09-27T06:58:28.163Z,23.02
2023-09-27T07:00:55.475Z,23.29
2023-09-27T07:03:25.497Z,23.24
2023-09-27T07:05:52.514Z,23.11
2023-09-27T07:08:19.328Z,23.01
2023-09-27T07:10:46.085Z,23.20
2023-09-27T07:13:12.666Z,23.30
2023-09-27T07:15:39.350Z,23.28
2023-09-27T07:18:06.740Z,23.45
2023-09-27T07:20:34.932Z,23.62
2023-09-27T07:23:04.668Z,23.86
2023-09-27T07:25:34.973Z,24.04
2023-09-27T07:28:03.858Z,24.26
2023-09-27T07:30:30.688Z,24.31
2023-09-27T07:32:57.599Z,24.10
2023-09-27T07:35:27.815Z,24.09
2023-09-27T07:37:54.920Z,24.14
2023-09-27T07:40:22.063Z,23.86
2023-09-27T07:42:48.848Z,24.07
2023-09-27T07:45:22.026Z,24.07
2023-09-27T07:47:52.948Z,23.94
2023-09-27T07:50:20.538Z,23.77
2023-09-27T07:52:48.181Z,23.95
2023-09-27T07:55:15.244Z,23.75
2023-09-27T07:57:44.463Z,23.97
2023-09-27T08:00:16.050Z,24.02
2023-09-27T08:02:43.826Z,24.09
2023-09-27T08:05:10.723Z,23.86
2023-09-27T08:07:38.400Z,23.97
2023-09-27T08:10:19.111Z,24.34
2023-09-27T08:12:48.194Z,24.26
2023-09-27T08:15:15.164Z,24.46
2023-09-27T08:17:42.694Z,24.92
2023-09-27T08:20:12.234Z,25.10
2023-09-27T08:22:40.099Z,25.21
2023-09-27T08:25:14.831Z,25.28
2023-09-27T08:27:42.665Z,25.78
2023-09-27T08:30:10.230Z,26.02
2023-09-27T08:32:39.113Z,26.69
2023-09-27T08:35:07.405Z,27.06
2023-09-27T08:37:34.561Z,27.78
2023-09-27T08:40:01.668Z,28.35
2023-09-27T08:42:28.891Z,28.40
2023-09-27T08:44:55.997Z,28.58
2023-09-27T08:47:22.803Z,28.58
2023-09-27T08:49:50.073Z,28.55
2023-09-27T08:52:17.369Z,28.57
2023-09-27T08:54:44.035Z,28.74
2023-09-27T08:57:11.489Z,28.92
2023-09-27T08:59:39.235Z,29.14
2023-09-27T09:02:06.366Z,29.25
2023-09-27T09:04:37.072Z,29.30
2023-09-27T09:07:03.907Z,29.99
2023-09-27T09:09:31.120Z,30.71
2023-09-27T09:12:00.647Z,30.32
2023-09-27T09:14:43.654Z,30.46
2023-09-27T09:17:18.405Z,30.47
2023-09-27T09:20:03.320Z,30.00
2023-09-27T09:22:33.937Z,30.56
2023-09-27T09:25:02.870Z,30.74
2023-09-27T09:27:31.499Z,30.66
2023-09-27T09:29:58.276Z,30.94
2023-09-27T09:32:28.132Z,31.12
2023-09-27T09:34:56.397Z,30.86
2023-09-27T09:37:24.594Z,30.83
2023-09-27T09:39:52.286Z,31.36
2023-09-27T09:42:37.121Z,31.40
2023-09-27T09:45:07.604Z,31.01
2023-09-27T09:47:37.496Z,31.27
2023-09-27T09:50:08.709Z,31.30
2023-09-27T09:52:38.643Z,31.39
2023-09-27T09:55:20.097Z,31.44
2023-09-27T09:58:15.510Z,31.60
2023-09-27T10:00:42.866Z,31.42
2023-09-27T10:03:10.351Z,31.31
2023-09-27T10:05:38.598Z,31.46
2023-09-27T10:08:08.080Z,31.54
2023-09-27T10:10:35.563Z,31.33
2023-09-27T10:13:04.830Z,31.39
2023-09-27T10:15:34.708Z,31.87
2023-09-27T10:18:23.025Z,32.15
2023-09-27T10:21:02.301Z,32.10
2023-09-27T10:23:36.396Z,32.28
2023-09-27T10:26:27.721Z,32.42
2023-09-27T10:29:17.018Z,32.25
2023-09-27T10:31:59.326Z,32.41
2023-09-27T10:34:26.104Z,32.86
2023-09-27T10:37:04.658Z,32.97
2023-09-27T10:39:40.000Z,33.11
2023-09-27T10:42:06.884Z,32.92
2023-09-27T10:44:34.458Z,32.92
2023-09-27T10:47:04.522Z,33.26
2023-09-27T10:49:42.043Z,33.34
2023-09-27T10:52:16.203Z,33.36
2023-09-27T10:54:43.113Z,33.46
2023-09-27T10:57:09.869Z,33.39
2023-09-27T10:59:36.629Z,33.25
2023-09-27T11:02:04.235Z,33.25
2023-09-27T11:04:33.105Z,33.41
2023-09-27T11:07:00.265Z,33.34
2023-09-27T11:09:27.645Z,32.83
2023-09-27T11:11:54.943Z,33.03
2023-09-27T11:14:43.820Z,33.29
2023-09-27T11:17:22.861Z,33.45
2023-09-27T11:19:50.156Z,33.66
2023-09-27T11:22:26.576Z,33.62
2023-09-27T11:24:53.369Z,33.71
2023-09-27T11:27:20.460Z,33.65
2023-09-27T11:29:54.075Z,33.43
2023-09-27T11:32:21.436Z,33.48
2023-09-27T11:34:57.504Z,33.09
2023-09-27T11:37:24.966Z,33.09
2023-09-27T11:39:53.008Z,33.01
2023-09-27T11:42:26.434Z,32.98
2023-09-27T11:45:09.600Z,33.20
2023-09-27T11:47:46.819Z,33.41
2023-09-27T11:50:18.030Z,33.74
2023-09-27T11:52:47.196Z,34.00
2023-09-27T11:55:14.397Z,33.74
2023-09-27T11:57:41.385Z,33.30
2023-09-27T12:00:16.031Z,33.40
2023-09-27T12:02:52.077Z,33.36
2023-09-27T12:05:23.852Z,33.32
2023-09-27T12:07:51.118Z,33.26
2023-09-27T12:10:17.953Z,33.33
2023-09-27T12:12:44.703Z,33.25
2023-09-27T12:15:11.431Z,33.10
2023-09-27T12:17:38.341Z,33.46
2023-09-27T12:20:09.189Z,33.52
2023-09-27T12:22:41.137Z,33.28
2023-09-27T12:25:08.461Z,33.03
2023-09-27T12:27:35.296Z,32.75
2023-09-27T12:30:02.134Z,32.77
2023-09-27T12:32:29.018Z,32.96
2023-09-27T12:34:55.795Z,33.22
2023-09-27T12:37:23.227Z,33.37
2023-09-27T12:39:50.042Z,33.35
2023-09-27T12:42:16.732Z,33.56
2023-09-27T12:44:43.444Z,33.59
2023-09-27T12:47:10.636Z,33.36
2023-09-27T12:49:37.419Z,33.09
2023-09-27T12:52:04.330Z,33.00
2023-09-27T12:54:31.181Z,33.02
2023-09-27T12:56:59.697Z,33.56
2023-09-27T12:59:27.113Z,33.68
2023-09-27T13:01:54.994Z,33.55
2023-09-27T13:04:22.187Z,33.53
2023-09-27T13:06:49.037Z,33.23
2023-09-27T13:09:17.824Z,33.16
2023-09-27T13:11:44.608Z,32.97
2023-09-27T13:14:11.410Z,32.77
2023-09-27T13:16:38.375Z,32.80
2023-09-27T13:19:05.358Z,33.16
2023-09-27T13:21:32.123Z,33.24
2023-09-27T13:23:58.840Z,33.20
2023-09-27T13:26:26.551Z,33.10
2023-09-27T13:28:53.570Z,32.94
2023-09-27T13:31:20.434Z,33.01
2023-09-27T13:33:55.098Z,33.23
2023-09-27T13:36:35.703Z,33.31
2023-09-27T13:39:06.244Z,33.35
2023-09-27T13:41:42.364Z,33.47
2023-09-27T13:44:09.136Z,33.47
2023-09-27T13:46:36.006Z,33.48
2023-09-27T13:49:03.683Z,33.70
2023-09-27T13:51:35.300Z,33.66
2023-09-27T13:54:12.706Z,33.54
2023-09-27T13:56:39.448Z,33.51
2023-09-27T13:59:06.704Z,33.56
2023-09-27T14:01:33.699Z,33.50
2023-09-27T14:04:01.549Z,33.61
2023-09-27T14:06:28.502Z,33.72
2023-09-27T14:08:55.788Z,33.48
2023-09-27T14:11:23.109Z,33.42
2023-09-27T14:13:49.887Z,33.25
2023-09-27T14:16:19.665Z,33.22
2023-09-27T14:18:46.729Z,33.20
2023-09-27T14:21:13.964Z,33.05
2023-09-27T14:23:42.471Z,33.05
2023-09-27T14:26:09.711Z,33.13
2023-09-27T14:28:36.564Z,33.15
2023-09-27T14:31:03.275Z,33.19
2023-09-27T14:33:30.106Z,33.15
2023-09-27T14:35:57.004Z,33.25
2023-09-27T14:38:23.577Z,33.32
2023-09-27T14:40:50.280Z,33.15
2023-09-27T14:43:16.939Z,33.16
2023-09-27T14:45:43.544Z,33.09
2023-09-27T14:48:10.594Z,32.82
2023-09-27T14:50:37.526Z,32.69
2023-09-27T14:53:04.300Z,32.62
2023-09-27T14:55:31.016Z,32.58
2023-09-27T14:57:57.816Z,32.38
2023-09-27T15:00:24.783Z,32.03
2023-09-27T15:02:54.619Z,31.63
2023-09-27T15:05:21.493Z,31.31
2023-09-27T15:07:48.734Z,30.91
2023-09-27T15:10:15.734Z,30.52
2023-09-27T15:12:42.634Z,30.29
2023-09-27T15:15:11.726Z,30.23
2023-09-27T15:17:42.480Z,30.06
2023-09-27T15:20:10.089Z,29.97
2023-09-27T15:22:39.014Z,29.91
2023-09-27T15:25:07.183Z,29.84
2023-09-27T15:27:34.017Z,29.67
2023-09-27T15:30:00.665Z,29.52
2023-09-27T15:32:28.946Z,29.32
2023-09-27T15:34:55.855Z,28.98
2023-09-27T15:37:22.568Z,28.87
2023-09-27T15:39:49.298Z,28.77
2023-09-27T15:42:16.004Z,28.54
2023-09-27T15:44:42.686Z,28.37
2023-09-27T15:47:12.515Z,28.20
2023-09-27T15:49:39.620Z,27.93
2023-09-27T15:52:06.358Z,27.78
2023-09-27T15:54:33.629Z,27.53
2023-09-27T15:57:00.230Z,27.42
2023-09-27T15:59:26.791Z,27.25
2023-09-27T16:01:53.617Z,27.00
2023-09-27T16:04:20.405Z,26.81
2023-09-27T16:06:47.340Z,26.64
2023-09-27T16:09:15.852Z,26.48
2023-09-27T16:11:44.131Z,26.22
2023-09-27T16:14:12.254Z,26.11
2023-09-27T16:16:39.142Z,25.98
2023-09-27T16:19:15.761Z,25.88
2023-09-27T16:21:42.395Z,25.73
2023-09-27T16:24:09.181Z,25.69
2023-09-27T16:26:35.940Z,25.57
2023-09-27T16:29:03.361Z,25.44
2023-09-27T16:31:33.014Z,25.38
2023-09-27T16:33:59.876Z,25.52
2023-09-27T16:36:26.798Z,25.45
2023-09-27T16:38:53.849Z,25.34
2023-09-27T16:41:20.806Z,25.36
2023-09-27T16:43:47.996Z,25.43
2023-09-27T16:46:14.740Z,25.45
2023-09-27T16:48:41.562Z,25.55
2023-09-27T16:51:08.317Z,25.50
2023-09-27T16:53:35.091Z,25.48
2023-09-27T16:56:01.819Z,25.61
2023-09-27T16:58:28.845Z,25.55
2023-09-27T17:01:00.352Z,25.53
2023-09-27T17:03:27.698Z,25.61
2023-09-27T17:05:54.478Z,25.77
2023-09-27T17:08:21.259Z,25.74
2023-09-27T17:10:48.142Z,25.63
2023-09-27T17:13:14.987Z,25.58
2023-09-27T17:15:44.691Z,25.70
2023-09-27T17:18:11.552Z,25.83
2023-09-27T17:20:38.499Z,25.49
2023-09-27T17:23:05.161Z,25.29
2023-09-27T17:25:32.011Z,25.16
2023-09-27T17:27:59.889Z,25.11
2023-09-27T17:30:26.467Z,25.08
2023-09-27T17:32:53.418Z,24.98
2023-09-27T17:35:21.176Z,24.86
2023-09-27T17:37:48.005Z,24.88
2023-09-27T17:40:15.677Z,24.85
2023-09-27T17:42:44.939Z,24.97
2023-09-27T17:45:12.402Z,24.63
2023-09-27T17:47:39.378Z,24.48
2023-09-27T17:50:06.426Z,24.47
2023-09-27T17:52:35.560Z,24.40
2023-09-27T17:55:03.525Z,24.42
2023-09-27T17:57:30.361Z,24.39
2023-09-27T18:00:02.996Z,24.37
2023-09-27T18:02:32.707Z,24.48
2023-09-27T18:04:59.692Z,24.44
2023-09-27T18:07:26.810Z,24.32
2023-09-27T18:09:53.709Z,24.14
2023-09-27T18:12:20.463Z,24.15
2023-09-27T18:14:47.166Z,24.14
2023-09-27T18:17:13.958Z,24.13
2023-09-27T18:19:40.867Z,24.03
2023-09-27T18:22:07.615Z,23.97
2023-09-27T18:24:34.445Z,23.84
2023-09-27T18:27:01.151Z,23.75
2023-09-27T18:29:28.944Z,23.72
2023-09-27T18:31:55.766Z,23.76
2023-09-27T18:34:22.471Z,23.81
2023-09-27T18:36:49.413Z,23.77
2023-09-27T18:39:16.108Z,23.80
2023-09-27T18:41:43.763Z,23.79
2023-09-27T18:44:12.123Z,23.88
2023-09-27T18:46:40.468Z,23.81
2023-09-27T18:49:07.217Z,23.75
2023-09-27T18:51:33.967Z,23.66
2023-09-27T18:54:00.668Z,23.56
2023-09-27T18:56:27.378Z,23.47
2023-09-27T18:58:58.984Z,23.45
2023-09-27T19:01:26.297Z,23.35
2023-09-27T19:03:53.834Z,23.36
2023-09-27T19:06:20.837Z,23.38
2023-09-27T19:08:48.437Z,23.31
2023-09-27T19:11:19.002Z,23.26
2023-09-27T19:13:45.811Z,23.31
2023-09-27T19:16:12.646Z,23.27
2023-09-27T19:18:39.341Z,23.25
2023-09-27T19:21:06.062Z,23.29
2023-09-27T19:23:32.784Z,23.23
2023-09-27T19:25:59.479Z,23.23
2023-09-27T19:28:26.383Z,23.27
2023-09-27T19:30:53.151Z,23.18
2023-09-27T19:33:19.898Z,23.08
2023-09-27T19:35:46.620Z,23.03
2023-09-27T19:38:13.764Z,22.85
2023-09-27T19:40:40.519Z,22.90
2023-09-27T19:43:07.261Z,22.85
2023-09-27T19:45:34.014Z,22.79
2023-09-27T19:48:01.313Z,22.79
2023-09-27T19:50:28.136Z,22.77
2023-09-27T19:52:55.051Z,22.62
2023-09-27T19:55:21.782Z,22.63
2023-09-27T19:57:48.526Z,22.63
2023-09-27T20:00:18.815Z,22.56
2023-09-27T20:02:46.790Z,22.45
2023-09-27T20:05:13.514Z,22.33
2023-09-27T20:07:45.889Z,22.28
2023-09-27T20:10:12.612Z,22.27
2023-09-27T20:12:39.352Z,22.34
2023-09-27T20:15:08.907Z,22.31
2023-09-27T20:17:36.174Z,22.35
2023-09-27T20:20:03.501Z,22.20
2023-09-27T20:22:30.284Z,22.24
2023-09-27T20:24:58.093Z,22.19
2023-09-27T20:27:24.916Z,22.31
2023-09-27T20:29:51.500Z,22.33
2023-09-27T20:32:18.625Z,22.24
2023-09-27T20:34:45.228Z,22.18
2023-09-27T20:37:11.989Z,22.22
2023-09-27T20:39:39.762Z,22.21
2023-09-27T20:42:06.532Z,22.21
2023-09-27T20:44:33.166Z,22.31
2023-09-27T20:46:59.753Z,22.24
2023-09-27T20:49:26.580Z,21.83
2023-09-27T20:51:53.187Z,21.78
2023-09-27T20:54:19.755Z,21.82
2023-09-27T20:56:46.507Z,21.67
2023-09-27T20:59:13.201Z,21.52
2023-09-27T21:01:41.200Z,21.49
2023-09-27T21:04:08.055Z,21.57
2023-09-27T21:06:34.689Z,21.50
2023-09-27T21:09:03.608Z,21.38
2023-09-27T21:11:30.382Z,21.35
2023-09-27T21:13:58.058Z,21.22
2023-09-27T21:16:25.203Z,21.05
2023-09-27T21:18:52.200Z,20.94
2023-09-27T21:21:19.080Z,20.86
2023-09-27T21:23:45.795Z,20.69
2023-09-27T21:26:12.605Z,20.52
2023-09-27T21:28:39.605Z,20.42
2023-09-27T21:31:06.658Z,20.38
2023-09-27T21:33:39.369Z,20.27
2023-09-27T21:36:06.369Z,20.26
2023-09-27T21:38:34.042Z,20.26
2023-09-27T21:41:00.812Z,20.25
2023-09-27T21:43:27.952Z,20.22
2023-09-27T21:45:54.770Z,20.30
2023-09-27T21:48:27.431Z,20.23
2023-09-27T21:50:54.000Z,20.10
2023-09-27T21:53:20.612Z,20.07
2023-09-27T21:55:47.288Z,19.95
2023-09-27T21:58:13.917Z,19.78
2023-09-27T22:00:40.614Z,19.72
2023-09-27T22:03:08.733Z,19.69
2023-09-27T22:05:35.537Z,19.66
2023-09-27T22:08:02.395Z,19.56
2023-09-27T22:10:34.903Z,19.51
2023-09-27T22:13:21.413Z,19.45
2023-09-27T22:15:49.547Z,19.41
2023-09-27T22:18:16.570Z,19.29
2023-09-27T22:20:47.816Z,19.20
2023-09-27T22:23:39.363Z,19.11
2023-09-27T22:26:08.742Z,19.08
2023-09-27T22:28:35.492Z,18.99
2023-09-27T22:31:02.454Z,19.00
2023-09-27T22:33:33.521Z,18.92
2023-09-27T22:36:00.472Z,18.87
2023-09-27T22:38:27.192Z,18.94
2023-09-27T22:40:54.157Z,18.80
2023-09-27T22:43:20.814Z,18.73
2023-09-27T22:45:50.473Z,18.67
2023-09-27T22:48:18.149Z,18.64
2023-09-27T22:50:46.009Z,18.65
2023-09-27T22:53:16.570Z,18.71
2023-09-27T22:55:44.272Z,18.61
2023-09-27T22:58:11.041Z,18.41
2023-09-27T23:00:41.459Z,18.53
2023-09-27T23:03:14.064Z,18.62
2023-09-27T23:05:50.484Z,18.61
2023-09-27T23:08:26.577Z,18.49
2023-09-27T23:10:57.371Z,18.44
2023-09-27T23:13:35.479Z,18.41
2023-09-27T23:16:22.575Z,18.34
2023-09-27T23:18:49.402Z,18.40
2023-09-27T23:21:25.268Z,18.43
2023-09-27T23:23:58.333Z,18.41
2023-09-27T23:26:47.306Z,18.41
2023-09-27T23:29:29.784Z,18.34
2023-09-27T23:32:22.800Z,18.18
2023-09-27T23:34:49.858Z,18.16
2023-09-27T23:37:18.831Z,18.10
2023-09-27T23:39:47.728Z,18.01
2023-09-27T23:42:24.010Z,17.92
2023-09-27T23:45:08.486Z,17.93
2023-09-27T23:47:43.601Z,17.94
2023-09-27T23:50:17.219Z,17.76
2023-09-27T23:52:48.166Z,17.66
2023-09-27T23:55:16.220Z,17.45
2023-09-27T23:57:47.226Z,17.38
